Time;durP1;ratioP1;P1;durP2;ratioP2;P2;SDS_P1;SDS_P2;PMS_P1;PMS_P2;Temp;Humidity;BMP_temperature;BMP_pressure;BME280_temperature;BME280_humidity;BME280_pressure;Samples;Min_cycle;Max_cycle;Signal;HPM_P1;HPM_P2
2021/01/09 00:02:08;;;;;;;33.50;13.32;;;;;;;;;;5042871;28;20508;-59
2021/01/09 00:04:34;;;;;;;35.55;13.52;;;1.60;99.90;;;;;;5041087;28;20036;-60
2021/01/09 00:07:00;;;;;;;46.47;18.13;;;;;;;;;;5036059;28;20067;-60
2021/01/09 00:09:26;;;;;;;18.02;7.60;;;;;;;;;;5038097;28;20408;-60
2021/01/09 00:11:52;;;;;;;40.08;14.77;;;;;;;;;;5038446;28;20021;-60
2021/01/09 00:14:20;;;;;;;46.88;17.52;;;;;;;;;;5047569;28;20290;-60
2021/01/09 00:16:47;;;;;;;40.72;14.85;;;1.40;99.90;;;;;;5040657;28;20388;-60
2021/01/09 00:19:13;;;;;;;33.13;12.52;;;0.40;99.90;;;;;;5035622;28;20037;-60
2021/01/09 00:21:39;;;;;;;26.90;12.45;;;1.50;99.90;;;;;;5042562;28;20037;-60
2021/01/09 00:24:09;;;;;;;46.55;17.48;;;1.20;99.90;;;;;;5045325;28;20127;-61
2021/01/09 00:26:35;;;;;;;28.98;10.88;;;1.30;99.90;;;;;;5035399;28;20060;-61
2021/01/09 00:29:02;;;;;;;35.40;14.18;;;1.20;99.90;;;;;;5041735;28;20380;-60
2021/01/09 00:31:28;;;;;;;39.58;14.55;;;1.20;99.90;;;;;;5040545;28;20032;-60
2021/01/09 00:33:54;;;;;;;46.47;17.08;;;;;;;;;;5048896;28;20037;-60
2021/01/09 00:36:20;;;;;;;34.20;12.13;;;1.30;99.90;;;;;;5041685;28;20025;-60
2021/01/09 00:38:46;;;;;;;40.10;15.65;;;1.20;99.90;;;;;;5057857;28;20132;-60
2021/01/09 00:41:11;;;;;;;40.78;15.57;;;0.80;99.90;;;;;;5050033;28;20062;-60
2021/01/09 00:43:37;;;;;;;24.23;9.13;;;;;;;;;;5045434;28;20048;-60
2021/01/09 00:46:03;;;;;;;44.30;15.82;;;0.60;99.90;;;;;;5029492;28;20040;-60
2021/01/09 00:48:29;;;;;;;17.15;7.43;;;1.30;99.90;;;;;;5043250;28;20474;-60
2021/01/09 00:50:55;;;;;;;21.70;7.72;;;;;;;;;;5033677;28;20346;-60
2021/01/09 00:53:21;;;;;;;25.92;9.55;;;;;;;;;;5040666;28;20021;-60
2021/01/09 00:55:46;;;;;;;40.10;13.93;;;1.40;99.90;;;;;;5047541;28;20025;-60
2021/01/09 00:58:12;;;;;;;17.25;5.43;;;;;;;;;;5040193;28;20025;-60
2021/01/09 01:00:38;;;;;;;39.65;12.90;;;1.30;99.90;;;;;;5038498;28;20515;-59
2021/01/09 01:03:05;;;;;;;42.25;13.75;;;1.60;99.90;;;;;;5048626;28;20041;-60
2021/01/09 01:05:30;;;;;;;19.00;6.80;;;2.30;99.90;;;;;;5045786;28;20025;-60
2021/01/09 01:07:58;;;;;;;26.27;9.95;;;;;;;;;;5047813;28;20032;-59
2021/01/09 01:10:23;;;;;;;16.30;7.85;;;1.50;99.90;;;;;;5047120;28;20021;-59
2021/01/09 01:12:49;;;;;;;40.92;16.25;;;1.30;99.90;;;;;;5047566;28;20526;-59
2021/01/09 01:15:15;;;;;;;19.55;8.98;;;1.30;99.90;;;;;;5043361;28;20078;-60
2021/01/09 01:17:46;;;;;;;25.95;12.10;;;1.40;99.90;;;;;;5052257;28;20033;-60
2021/01/09 01:20:12;;;;;;;21.55;9.45;;;1.30;99.90;;;;;;5050198;28;20060;-60
2021/01/09 01:22:38;;;;;;;38.63;13.30;;;;;;;;;;5045334;28;20035;-60
2021/01/09 01:25:05;;;;;;;39.38;16.02;;;;;;;;;;5045814;28;20028;-59
2021/01/09 01:27:31;;;;;;;35.33;14.85;;;;;;;;;;5051562;28;20051;-60
2021/01/09 01:29:56;;;;;;;38.70;15.38;;;;;;;;;;5051265;28;20033;-60
2021/01/09 01:32:22;;;;;;;28.48;12.20;;;1.10;99.90;;;;;;5044200;28;20040;-60
2021/01/09 01:34:48;;;;;;;42.13;13.55;;;1.50;99.90;;;;;;5050827;28;20357;-60
2021/01/09 01:37:14;;;;;;;16.65;6.03;;;;;;;;;;5048277;28;20051;-59
2021/01/09 01:39:39;;;;;;;30.58;9.88;;;1.30;99.90;;;;;;5042722;28;20028;-61
2021/01/09 01:42:06;;;;;;;30.63;9.60;;;1.30;99.90;;;;;;5053037;28;20025;-60
2021/01/09 01:44:32;;;;;;;22.17;10.77;;;1.30;99.90;;;;;;5040298;28;20452;-60
2021/01/09 01:46:59;;;;;;;46.90;15.35;;;0.40;99.90;;;;;;5045444;28;20103;-59
2021/01/09 01:49:25;;;;;;;14.73;6.72;;;;;;;;;;5050662;28;20021;-59
2021/01/09 01:51:51;;;;;;;34.97;14.43;;;;;;;;;;5048107;28;20035;-59
2021/01/09 01:54:19;;;;;;;29.48;10.05;;;1.20;99.90;;;;;;5044165;28;20032;-60
2021/01/09 01:56:48;;;;;;;44.60;17.77;;;1.20;99.90;;;;;;5051291;28;20087;-59
2021/01/09 01:59:13;;;;;;;21.33;8.05;;;1.00;99.90;;;;;;5034706;28;21018;-60
2021/01/09 02:01:42;;;;;;;41.85;16.08;;;1.10;99.90;;;;;;5040839;28;20036;-60
2021/01/09 02:04:08;;;;;;;49.22;14.70;;;1.30;99.90;;;;;;5047038;28;20512;-60
2021/01/09 02:06:35;;;;;;;30.27;13.45;;;1.80;99.90;;;;;;5044576;28;20035;-60
2021/01/09 02:09:04;;;;;;;32.42;12.20;;;1.00;99.90;;;;;;5037141;28;20075;-60
2021/01/09 02:11:35;;;;;;;37.83;12.73;;;1.20;99.90;;;;;;5035537;28;20029;-60
2021/01/09 02:14:03;;;;;;;41.92;15.55;;;1.10;99.90;;;;;;5047472;28;20009;-60
2021/01/09 02:16:30;;;;;;;46.33;16.10;;;0.80;99.90;;;;;;5045826;28;20017;-61
2021/01/09 02:18:56;;;;;;;46.00;15.90;;;0.80;99.90;;;;;;5034420;28;20043;-61
2021/01/09 02:21:38;;;;;;;38.42;13.93;;;1.00;99.90;;;;;;5042799;28;20029;-60
2021/01/09 02:24:14;;;;;;;45.22;16.83;;;0.90;99.90;;;;;;5042596;28;20036;-61
2021/01/09 02:26:40;;;;;;;43.33;15.32;;;1.00;99.90;;;;;;5043359;28;20025;-61
2021/01/09 02:29:05;;;;;;;47.75;16.45;;;0.90;99.90;;;;;;5051056;28;20017;-61
2021/01/09 02:31:37;;;;;;;40.38;14.38;;;1.00;99.90;;;;;;5049209;28;20025;-59
2021/01/09 02:34:08;;;;;;;46.60;17.27;;;1.00;99.90;;;;;;5037986;28;20017;-59
2021/01/09 02:36:33;;;;;;;51.67;17.27;;;1.50;99.90;;;;;;5047182;28;20032;-58
2021/01/09 02:38:59;;;;;;;47.80;15.70;;;1.00;99.90;;;;;;5044740;28;20523;-60
2021/01/09 02:41:26;;;;;;;43.95;16.95;;;1.00;99.90;;;;;;5052758;28;20123;-60
2021/01/09 02:43:52;;;;;;;36.80;11.98;;;0.30;99.90;;;;;;5061476;28;20029;-60
2021/01/09 02:46:17;;;;;;;44.90;15.80;;;1.10;99.90;;;;;;5048309;28;20040;-60
2021/01/09 02:48:43;;;;;;;36.45;13.07;;;1.20;99.90;;;;;;5049396;28;20469;-60
2021/01/09 02:51:09;;;;;;;24.23;10.50;;;1.10;99.90;;;;;;5049347;28;20037;-60
2021/01/09 02:53:35;;;;;;;56.67;17.52;;;;;;;;;;5047744;28;20021;-60
2021/01/09 02:56:00;;;;;;;53.28;17.45;;;1.20;99.90;;;;;;5048690;28;20021;-60
2021/01/09 02:58:26;;;;;;;45.45;15.82;;;1.10;99.90;;;;;;5046851;28;20396;-61
2021/01/09 03:00:51;;;;;;;48.40;17.15;;;1.20;99.90;;;;;;5043631;28;20025;-60
2021/01/09 03:03:17;;;;;;;40.17;14.32;;;1.30;99.90;;;;;;5045968;28;20093;-60
2021/01/09 03:05:43;;;;;;;49.95;17.70;;;0.90;99.90;;;;;;5043468;28;20112;-60
2021/01/09 03:08:08;;;;;;;44.20;16.27;;;0.90;99.90;;;;;;5047334;28;20026;-61
2021/01/09 03:10:34;;;;;;;43.85;15.75;;;1.20;99.90;;;;;;5049335;28;20025;-60
2021/01/09 03:12:59;;;;;;;28.55;10.52;;;1.20;99.90;;;;;;5050935;28;20477;-60
2021/01/09 03:15:25;;;;;;;56.38;18.42;;;1.20;99.90;;;;;;5045719;28;20025;-60
2021/01/09 03:17:52;;;;;;;52.03;17.30;;;1.40;99.90;;;;;;5049170;28;20389;-61
2021/01/09 03:20:18;;;;;;;46.28;15.90;;;;;;;;;;5047935;28;20049;-61
2021/01/09 03:22:43;;;;;;;50.95;17.35;;;1.20;99.90;;;;;;5051843;28;20036;-60
2021/01/09 03:25:10;;;;;;;30.50;11.02;;;0.60;99.90;;;;;;5046253;28;20025;-60
2021/01/09 03:27:35;;;;;;;47.67;15.05;;;1.30;99.90;;;;;;5046545;28;20027;-60
2021/01/09 03:30:01;;;;;;;56.60;18.48;;;1.50;99.90;;;;;;5045773;28;20029;-60
2021/01/09 03:32:26;;;;;;;53.47;18.25;;;1.50;99.90;;;;;;5046726;28;20024;-61
2021/01/09 03:34:52;;;;;;;40.70;14.88;;;1.60;99.90;;;;;;5042938;28;20542;-60
2021/01/09 03:37:18;;;;;;;51.50;16.90;;;;;;;;;;5049359;28;20090;-60
2021/01/09 03:39:44;;;;;;;42.00;14.90;;;1.40;99.90;;;;;;5047509;28;20495;-60
2021/01/09 03:42:09;;;;;;;46.08;16.50;;;2.00;99.90;;;;;;5047942;28;20029;-60
2021/01/09 03:44:35;;;;;;;54.92;16.85;;;1.20;99.90;;;;;;5044537;28;20504;-61
2021/01/09 03:47:01;;;;;;;40.88;12.60;;;;;;;;;;5040853;28;20035;-60
2021/01/09 03:49:27;;;;;;;57.20;17.73;;;;;;;;;;5041548;28;20033;-61
2021/01/09 03:51:52;;;;;;;50.85;19.13;;;1.60;99.90;;;;;;5047720;28;20033;-60
2021/01/09 03:54:18;;;;;;;49.22;16.25;;;1.60;99.90;;;;;;5036069;28;20025;-60
2021/01/09 03:56:43;;;;;;;23.00;9.38;;;1.60;99.90;;;;;;5049492;28;20152;-60
2021/01/09 03:59:09;;;;;;;33.03;13.90;;;1.50;99.90;;;;;;5048020;28;20052;-60
2021/01/09 04:01:35;;;;;;;38.30;13.13;;;;;;;;;;5045757;28;20077;-60
2021/01/09 04:04:01;;;;;;;41.67;14.35;;;2.20;99.90;;;;;;5044996;28;20052;-60
2021/01/09 04:06:27;;;;;;;58.95;20.42;;;;;;;;;;5048002;28;20037;-60
2021/01/09 04:08:52;;;;;;;56.55;17.23;;;1.50;99.90;;;;;;5046763;28;20033;-60
2021/01/09 04:11:18;;;;;;;67.30;19.05;;;1.60;99.90;;;;;;5044473;28;20024;-60
2021/01/09 04:13:43;;;;;;;62.88;20.55;;;1.40;99.90;;;;;;5046351;28;20444;-60
2021/01/09 04:16:09;;;;;;;64.13;20.67;;;1.30;99.90;;;;;;5048100;28;20028;-59
2021/01/09 04:18:35;;;;;;;68.20;20.00;;;1.20;99.90;;;;;;5048732;28;20029;-59
2021/01/09 04:21:01;;;;;;;70.35;21.42;;;;;;;;;;5047814;28;20037;-60
2021/01/09 04:23:27;;;;;;;66.63;21.23;;;;;;;;;;5048953;28;20769;-60
2021/01/09 04:25:52;;;;;;;70.32;22.15;;;1.50;99.90;;;;;;5043868;28;20066;-61
2021/01/09 04:28:19;;;;;;;68.43;21.27;;;;;;;;;;5039730;28;20049;-60
2021/01/09 04:30:44;;;;;;;64.72;21.67;;;1.30;99.90;;;;;;5048861;28;20053;-60
2021/01/09 04:33:10;;;;;;;66.13;23.08;;;1.30;99.90;;;;;;5045758;28;20562;-60
2021/01/09 04:35:36;;;;;;;63.60;22.17;;;1.30;99.90;;;;;;5045384;28;20034;-60
2021/01/09 04:38:01;;;;;;;55.50;20.40;;;1.30;99.90;;;;;;5046196;28;20033;-60
2021/01/09 04:40:27;;;;;;;73.50;21.88;;;1.20;99.90;;;;;;5044473;28;20037;-60
2021/01/09 04:42:52;;;;;;;73.28;22.02;;;0.80;99.90;;;;;;5049799;28;20021;-60
2021/01/09 04:45:19;;;;;;;58.13;19.45;;;;;;;;;;5048724;28;20029;-57
2021/01/09 04:47:48;;;;;;;60.25;21.00;;;1.20;99.90;;;;;;5043976;28;20363;-60
2021/01/09 04:50:15;;;;;;;63.83;21.58;;;1.10;99.90;;;;;;5043846;28;20087;-60
2021/01/09 04:52:41;;;;;;;67.78;22.15;;;1.10;99.90;;;;;;5052551;28;20044;-57
2021/01/09 04:55:08;;;;;;;63.90;21.55;;;1.10;99.90;;;;;;5058440;28;20039;-58
2021/01/09 04:57:33;;;;;;;65.53;21.42;;;1.10;99.90;;;;;;5039546;28;20461;-57
2021/01/09 04:59:59;;;;;;;72.65;23.13;;;;;;;;;;5053550;28;20071;-57
2021/01/09 05:02:27;;;;;;;74.88;21.83;;;1.00;99.90;;;;;;5051608;28;20102;-59
2021/01/09 05:04:53;;;;;;;70.13;21.52;;;;;;;;;;5051260;28;20500;-59
2021/01/09 05:07:18;;;;;;;71.90;21.13;;;1.20;99.90;;;;;;5051026;28;20033;-60
2021/01/09 05:09:44;;;;;;;71.13;24.15;;;;;;;;;;5049990;28;20429;-60
2021/01/09 05:12:11;;;;;;;72.90;22.75;;;2.20;99.90;;;;;;5045557;28;20017;-60
2021/01/09 05:14:37;;;;;;;70.65;22.50;;;;;;;;;;5048651;28;20090;-60
2021/01/09 05:17:03;;;;;;;64.90;21.25;;;;;;;;;;5047881;28;20017;-59
2021/01/09 05:19:30;;;;;;;68.72;21.63;;;0.30;99.90;;;;;;5042546;28;20592;-59
2021/01/09 05:22:01;;;;;;;62.72;20.25;;;0.80;99.90;;;;;;5054792;28;20504;-59
2021/01/09 05:24:28;;;;;;;74.30;22.45;;;;;;;;;;5048678;28;20053;-59
2021/01/09 05:26:54;;;;;;;65.13;19.88;;;0.80;99.90;;;;;;5043445;28;20079;-59
2021/01/09 05:29:20;;;;;;;61.53;19.88;;;;;;;;;;5057894;28;20066;-60
2021/01/09 05:31:46;;;;;;;63.53;21.08;;;1.50;99.90;;;;;;5042207;28;20041;-59
2021/01/09 05:34:12;;;;;;;70.53;20.27;;;0.80;99.90;;;;;;5046179;28;20029;-59
2021/01/09 05:36:39;;;;;;;60.65;16.50;;;-0.10;99.90;;;;;;5058733;28;20471;-59
2021/01/09 05:39:05;;;;;;;74.00;21.95;;;0.70;99.90;;;;;;5048930;28;20087;-59
2021/01/09 05:41:31;;;;;;;66.55;20.92;;;;;;;;;;5038214;28;20540;-59
2021/01/09 05:44:01;;;;;;;70.80;20.30;;;1.30;99.90;;;;;;5038943;28;20139;-59
2021/01/09 05:46:28;;;;;;;75.45;22.42;;;0.90;99.90;;;;;;5041594;28;20064;-59
2021/01/09 05:48:54;;;;;;;111.68;33.15;;;1.00;99.90;;;;;;5051054;28;20463;-59
2021/01/09 05:51:21;;;;;;;109.10;33.80;;;0.90;99.90;;;;;;5041751;28;20529;-60
2021/01/09 05:53:48;;;;;;;100.00;30.85;;;1.00;99.90;;;;;;5052115;28;20084;-59
2021/01/09 05:56:17;;;;;;;80.32;24.15;;;0.70;99.90;;;;;;5054435;28;20040;-59
2021/01/09 05:58:43;;;;;;;75.43;25.40;;;;;;;;;;5040965;28;20032;-59
2021/01/09 06:01:10;;;;;;;82.97;25.67;;;0.90;99.90;;;;;;5053741;28;20038;-60
2021/01/09 06:03:55;;;;;;;81.07;24.40;;;0.90;99.90;;;;;;5043611;28;20046;-60
2021/01/09 06:06:47;;;;;;;77.10;22.83;;;1.00;99.90;;;;;;5053482;28;20025;-59
2021/01/09 06:09:35;;;;;;;72.00;22.92;;;2.10;99.90;;;;;;5058687;28;20107;-59
2021/01/09 06:12:09;;;;;;;77.40;24.45;;;1.70;99.90;;;;;;5035655;28;20131;-59
2021/01/09 06:14:36;;;;;;;62.72;20.52;;;0.70;99.90;;;;;;5059977;28;20607;-59
2021/01/09 06:17:03;;;;;;;63.60;20.85;;;1.70;99.90;;;;;;5057503;28;20040;-59
2021/01/09 06:19:29;;;;;;;66.95;20.77;;;;;;;;;;5052126;28;20052;-59
2021/01/09 06:21:56;;;;;;;74.63;22.05;;;0.50;99.90;;;;;;5044771;28;20386;-59
2021/01/09 06:24:22;;;;;;;68.97;20.25;;;0.60;99.90;;;;;;5045215;28;20472;-60
2021/01/09 06:26:48;;;;;;;67.97;21.17;;;0.50;99.90;;;;;;5048314;28;20028;-59
2021/01/09 06:29:26;;;;;;;71.65;21.02;;;0.80;99.90;;;;;;5050897;28;20135;-59
2021/01/09 06:31:54;;;;;;;60.75;20.20;;;0.90;99.90;;;;;;5051938;28;20028;-59
2021/01/09 06:34:25;;;;;;;71.50;20.73;;;0.80;99.90;;;;;;5043024;28;20326;-59
2021/01/09 06:36:55;;;;;;;;;;;0.70;99.90;;;;;;5040930;28;20029;-59
2021/01/09 06:39:23;;;;;;;57.75;18.13;;;0.00;99.90;;;;;;5051343;28;19913;-59
2021/01/09 06:41:52;;;;;;;66.85;20.48;;;0.60;99.90;;;;;;5047504;28;20036;-60
2021/01/09 06:44:20;;;;;;;75.47;21.45;;;0.50;99.90;;;;;;5035336;28;20044;-59
2021/01/09 06:46:46;;;;;;;71.25;20.88;;;0.70;99.90;;;;;;5050146;28;20055;-59
2021/01/09 06:49:17;;;;;;;66.25;20.67;;;0.40;99.90;;;;;;5060312;28;20037;-59
2021/01/09 06:52:03;;;;;;;70.07;20.17;;;0.50;99.90;;;;;;5043149;28;20090;-59
2021/01/09 06:54:47;;;;;;;62.22;17.45;;;0.70;99.90;;;;;;5054070;28;20069;-59
2021/01/09 06:57:36;;;;;;;56.45;17.38;;;0.60;99.90;;;;;;5041024;28;20029;-60
2021/01/09 07:00:16;;;;;;;54.45;16.52;;;1.00;99.90;;;;;;5046078;28;20040;-60
2021/01/09 07:02:42;;;;;;;64.50;18.52;;;1.00;99.90;;;;;;5047658;28;20048;-61
2021/01/09 07:05:19;;;;;;;64.65;20.05;;;1.00;99.90;;;;;;5057854;28;20282;-59
2021/01/09 07:07:56;;;;;;;53.35;17.20;;;1.10;99.90;;;;;;5043106;28;20121;-59
2021/01/09 07:10:28;;;;;;;63.10;19.58;;;1.10;99.90;;;;;;5048014;28;20045;-60
2021/01/09 07:12:57;;;;;;;67.63;20.13;;;0.90;99.90;;;;;;5046280;28;20048;-59
2021/01/09 07:15:23;;;;;;;64.80;19.75;;;0.80;99.90;;;;;;5047668;28;20021;-60
2021/01/09 07:17:55;;;;;;;62.22;19.23;;;0.90;99.90;;;;;;5043401;28;20052;-60
2021/01/09 07:20:23;;;;;;;64.63;20.25;;;1.00;99.90;;;;;;5042141;28;20576;-60
2021/01/09 07:22:51;;;;;;;70.78;19.65;;;0.90;99.90;;;;;;5044950;28;20059;-60
2021/01/09 07:25:38;;;;;;;69.30;20.38;;;0.90;99.90;;;;;;5044377;28;20116;-60
2021/01/09 07:28:11;;;;;;;63.47;17.35;;;0.90;99.90;;;;;;5040788;28;20480;-60
2021/01/09 07:30:37;;;;;;;69.82;20.58;;;1.20;99.90;;;;;;5042325;28;20116;-60
2021/01/09 07:33:09;;;;;;;76.32;21.13;;;1.80;99.90;;;;;;5042528;28;20152;-60
2021/01/09 07:35:37;;;;;;;63.55;17.80;;;2.00;99.90;;;;;;5049662;28;20460;-59
2021/01/09 07:38:05;;;;;;;72.60;21.15;;;1.10;99.90;;;;;;5050109;28;20112;-60
2021/01/09 07:40:52;;;;;;;60.80;17.42;;;2.10;99.90;;;;;;5045732;28;20171;-60
2021/01/09 07:43:47;;;;;;;72.57;20.30;;;1.80;99.90;;;;;;5039142;28;20124;-59
2021/01/09 07:46:32;;;;;;;68.07;19.50;;;1.00;99.90;;;;;;5039094;28;20048;-60
2021/01/09 07:48:59;;;;;;;66.22;20.55;;;1.10;99.90;;;;;;5041904;28;20072;-60
2021/01/09 07:51:47;;;;;;;84.15;22.45;;;1.20;99.90;;;;;;5050821;28;20423;-60
2021/01/09 07:54:28;;;;;;;71.38;21.73;;;0.90;99.90;;;;;;5048469;28;20035;-60
2021/01/09 07:56:54;;;;;;;72.97;20.52;;;;;;;;;;5047311;28;20120;-60
2021/01/09 07:59:20;;;;;;;72.32;20.15;;;1.10;99.90;;;;;;5046783;28;20107;-60
2021/01/09 08:01:46;;;;;;;73.32;20.63;;;1.20;99.90;;;;;;5049569;28;20474;-60
2021/01/09 08:04:12;;;;;;;76.93;19.67;;;1.40;99.90;;;;;;5061822;28;20110;-60
2021/01/09 08:06:39;;;;;;;84.38;22.33;;;0.70;99.90;;;;;;5047484;28;20042;-60
2021/01/09 08:09:09;;;;;;;72.55;22.00;;;1.30;99.90;;;;;;5042964;28;20025;-60
2021/01/09 08:12:01;;;;;;;75.50;20.95;;;1.30;99.90;;;;;;5039503;28;20063;-60
2021/01/09 08:14:27;;;;;;;72.43;20.75;;;;;;;;;;5032732;28;20045;-59
2021/01/09 08:16:53;;;;;;;73.30;20.42;;;;;;;;;;5049367;28;20021;-60
2021/01/09 08:19:20;;;;;;;74.93;20.55;;;1.40;99.90;;;;;;5048607;28;20052;-60
2021/01/09 08:21:48;;;;;;;66.45;20.83;;;1.20;99.90;;;;;;5041717;28;20100;-60
2021/01/09 08:24:25;;;;;;;59.53;17.42;;;1.40;99.90;;;;;;5049113;28;20021;-60
2021/01/09 08:26:56;;;;;;;33.95;11.77;;;1.70;99.90;;;;;;5053709;28;20428;-59
2021/01/09 08:29:22;;;;;;;56.90;17.92;;;1.60;99.90;;;;;;5041200;28;20030;-59
2021/01/09 08:31:54;;;;;;;69.05;18.80;;;1.50;99.90;;;;;;5035769;28;20033;-59
2021/01/09 08:34:21;;;;;;;57.75;18.00;;;1.70;99.90;;;;;;5054065;28;20083;-59
2021/01/09 08:36:54;;;;;;;70.03;20.42;;;1.50;99.90;;;;;;5056002;28;20028;-59
2021/01/09 08:39:20;;;;;;;56.55;17.50;;;1.60;99.90;;;;;;5048317;28;20025;-59
2021/01/09 08:41:46;;;;;;;68.72;18.55;;;0.90;99.90;;;;;;5040739;28;20362;-59
2021/01/09 08:44:13;;;;;;;69.90;19.60;;;1.70;99.90;;;;;;5041938;28;20029;-59
2021/01/09 08:46:41;;;;;;;63.47;17.73;;;1.80;99.90;;;;;;5029898;28;20044;-59
2021/01/09 08:49:21;;;;;;;60.00;17.95;;;2.00;99.90;;;;;;5029663;28;20034;-59
2021/01/09 08:52:10;;;;;;;44.75;13.82;;;2.50;99.90;;;;;;5040821;28;20507;-59
2021/01/09 08:54:38;;;;;;;58.70;16.77;;;2.10;99.90;;;;;;5034282;28;20385;-60
2021/01/09 08:57:05;;;;;;;15.38;6.57;;;2.40;99.90;;;;;;5054929;28;20025;-59
2021/01/09 08:59:31;;;;;;;50.75;15.18;;;2.30;99.90;;;;;;5040209;28;20025;-60
2021/01/09 09:02:00;;;;;;;53.35;15.32;;;2.50;99.90;;;;;;5049659;28;20116;-60
2021/01/09 09:04:27;;;;;;;44.03;15.40;;;2.50;99.90;;;;;;5049752;28;20044;-60
2021/01/09 09:07:04;;;;;;;32.03;11.75;;;2.60;99.90;;;;;;5046270;28;20024;-60
2021/01/09 09:09:32;;;;;;;37.30;12.07;;;2.30;99.90;;;;;;5044347;28;20157;-60
2021/01/09 09:11:57;;;;;;;33.33;10.85;;;2.30;99.90;;;;;;5050154;28;20028;-61
2021/01/09 09:14:25;;;;;;;27.30;9.27;;;2.20;99.90;;;;;;5038992;28;20025;-61
2021/01/09 09:17:19;;;;;;;25.17;9.45;;;2.30;99.90;;;;;;5046914;28;20033;-61
2021/01/09 09:19:45;;;;;;;44.55;15.73;;;;;;;;;;5045702;28;20405;-62
2021/01/09 09:22:12;;;;;;;47.70;15.90;;;2.40;99.90;;;;;;5045528;28;20393;-60
2021/01/09 09:24:39;;;;;;;22.33;8.35;;;2.70;99.90;;;;;;5045272;28;20095;-60
2021/01/09 09:27:28;;;;;;;40.00;15.00;;;3.00;99.90;;;;;;5035484;28;20014;-60
2021/01/09 09:30:14;;;;;;;28.38;9.65;;;2.70;99.90;;;;;;5036749;28;20565;-60
2021/01/09 09:32:45;;;;;;;42.80;15.13;;;2.80;99.90;;;;;;5049158;28;20438;-60
2021/01/09 09:35:24;;;;;;;43.78;15.15;;;2.70;99.90;;;;;;5048054;28;20028;-60
2021/01/09 09:37:52;;;;;;;47.10;15.83;;;2.80;99.90;;;;;;5055710;28;20110;-60
2021/01/09 09:40:31;;;;;;;34.30;11.43;;;2.60;99.90;;;;;;5060893;28;20342;-60
2021/01/09 09:43:17;;;;;;;48.10;14.68;;;2.50;99.90;;;;;;5042139;28;20082;-61
2021/01/09 09:46:03;;;;;;;24.13;6.50;;;2.60;99.90;;;;;;5043850;28;20493;-60
2021/01/09 09:48:37;;;;;;;49.10;17.33;;;2.60;99.90;;;;;;5039875;28;20112;-61
2021/01/09 09:51:07;;;;;;;45.75;14.73;;;2.50;99.90;;;;;;5045435;28;20507;-60
2021/01/09 09:53:35;;;;;;;;;;;2.50;99.90;;;;;;5045393;28;20030;-60
2021/01/09 09:56:15;;;;;;;46.85;16.23;;;2.60;99.90;;;;;;5043704;28;19909;-61
2021/01/09 09:58:41;;;;;;;42.67;14.57;;;2.60;99.90;;;;;;5045352;28;20400;-60
2021/01/09 10:01:21;;;;;;;17.83;8.65;;;2.70;99.90;;;;;;5043703;28;20504;-60
2021/01/09 10:03:48;;;;;;;31.27;12.00;;;2.60;99.90;;;;;;5037924;28;20049;-61
2021/01/09 10:06:14;;;;;;;41.60;14.25;;;2.60;99.90;;;;;;5036519;28;20493;-60
2021/01/09 10:08:40;;;;;;;40.88;14.80;;;3.10;99.90;;;;;;5037653;28;20034;-60
2021/01/09 10:11:06;;;;;;;46.63;16.10;;;2.50;99.90;;;;;;5048898;28;20021;-60
2021/01/09 10:13:32;;;;;;;46.83;15.30;;;2.70;99.90;;;;;;5035508;28;20409;-61
2021/01/09 10:15:58;;;;;;;27.90;11.43;;;2.60;99.90;;;;;;5035398;28;20076;-61
2021/01/09 10:18:25;;;;;;;25.75;10.43;;;2.50;99.90;;;;;;5043266;28;20047;-60
2021/01/09 10:20:51;;;;;;;47.45;16.70;;;;;;;;;;5034426;28;20484;-60
2021/01/09 10:23:17;;;;;;;46.95;16.25;;;;;;;;;;5062735;28;20119;-61
2021/01/09 10:25:43;;;;;;;39.58;14.57;;;3.80;99.90;;;;;;5035608;28;20025;-61
2021/01/09 10:28:09;;;;;;;43.70;15.95;;;;;;;;;;5044181;28;20370;-60
2021/01/09 10:30:35;;;;;;;38.90;13.80;;;;;;;;;;5033717;28;20028;-60
2021/01/09 10:33:02;;;;;;;40.35;16.95;;;;;;;;;;5036167;28;20066;-61
2021/01/09 10:35:28;;;;;;;46.92;14.80;;;;;;;;;;5028772;28;20414;-60
2021/01/09 10:37:54;;;;;;;38.97;13.55;;;;;;;;;;5051196;28;20447;-60
2021/01/09 10:40:20;;;;;;;36.00;11.95;;;3.10;99.90;;;;;;5038335;28;20047;-61
2021/01/09 10:42:46;;;;;;;35.13;14.05;;;;;;;;;;5044022;28;20029;-60
2021/01/09 10:45:15;;;;;;;26.88;10.90;;;3.10;99.90;;;;;;5035275;28;20029;-60
2021/01/09 10:47:42;;;;;;;35.47;15.95;;;;;;;;;;5051939;28;20477;-61
2021/01/09 10:50:08;;;;;;;37.13;12.13;;;3.00;99.90;;;;;;5033690;28;20033;-60
2021/01/09 10:52:34;;;;;;;37.38;13.27;;;3.10;99.90;;;;;;5037830;28;20029;-60
2021/01/09 10:55:00;;;;;;;38.20;13.23;;;;;;;;;;5060544;28;20391;-60
2021/01/09 10:57:26;;;;;;;38.25;13.02;;;;;;;;;;5042507;28;20056;-60
2021/01/09 10:59:52;;;;;;;25.67;9.00;;;;;;;;;;5037604;28;20060;-60
2021/01/09 11:02:18;;;;;;;43.65;16.80;;;;;;;;;;5044715;28;20491;-61
2021/01/09 11:04:45;;;;;;;41.17;14.55;;;;;;;;;;5041830;28;20637;-61
2021/01/09 11:07:11;;;;;;;48.72;16.65;;;;;;;;;;5049881;28;20345;-61
2021/01/09 11:09:37;;;;;;;53.17;17.00;;;3.20;99.90;;;;;;5053058;28;20648;-61
2021/01/09 11:12:03;;;;;;;46.58;13.50;;;;;;;;;;5052783;28;20418;-61
2021/01/09 11:14:29;;;;;;;49.17;17.17;;;;;;;;;;5052318;28;20040;-61
2021/01/09 11:17:01;;;;;;;44.78;16.42;;;4.20;99.90;;;;;;5035437;28;20029;-61
2021/01/09 11:19:27;;;;;;;32.80;10.73;;;3.50;99.90;;;;;;5043639;28;20044;-61
2021/01/09 11:22:00;;;;;;;47.65;16.20;;;;;;;;;;5054868;28;20102;-60
2021/01/09 11:24:27;;;;;;;32.92;9.93;;;3.50;99.90;;;;;;5038787;28;20040;-62
2021/01/09 11:26:54;;;;;;;45.08;16.40;;;;;;;;;;5043039;28;20528;-61
2021/01/09 11:29:21;;;;;;;45.70;16.80;;;;;;;;;;5037907;28;20254;-61
2021/01/09 11:31:47;;;;;;;46.53;16.45;;;;;;;;;;5040421;28;20287;-61
2021/01/09 11:34:13;;;;;;;40.35;14.52;;;;;;;;;;5037466;28;20596;-61
2021/01/09 11:36:38;;;;;;;46.38;15.10;;;3.60;99.90;;;;;;5048062;28;20453;-61
2021/01/09 11:39:04;;;;;;;41.10;15.10;;;;;;;;;;5049687;28;20059;-61
2021/01/09 11:41:31;;;;;;;35.35;10.88;;;;;;;;;;5039418;28;20119;-61
2021/01/09 11:43:56;;;;;;;48.30;16.08;;;;;;;;;;5045438;28;20033;-61
2021/01/09 11:46:27;;;;;;;36.95;14.68;;;3.50;99.90;;;;;;5041679;28;20039;-61
2021/01/09 11:48:53;;;;;;;41.17;14.60;;;;;;;;;;5037050;28;20109;-61
2021/01/09 11:51:25;;;;;;;35.75;12.95;;;3.50;99.90;;;;;;5043469;28;20033;-61
2021/01/09 11:53:52;;;;;;;28.27;10.30;;;3.70;99.90;;;;;;5046019;28;20099;-60
2021/01/09 11:56:21;;;;;;;36.33;12.23;;;4.00;99.90;;;;;;5032639;28;20033;-60
2021/01/09 11:58:47;;;;;;;36.00;12.35;;;;;;;;;;5036548;28;20096;-60
2021/01/09 12:01:13;;;;;;;33.70;11.80;;;;;;;;;;5052321;28;20051;-60
2021/01/09 12:03:40;;;;;;;35.83;12.75;;;;;;;;;;5051758;28;20528;-60
2021/01/09 12:06:06;;;;;;;33.40;10.93;;;5.60;99.90;;;;;;5041288;28;20036;-61
2021/01/09 12:08:32;;;;;;;41.53;13.32;;;;;;;;;;5049753;28;20194;-60
2021/01/09 12:10:59;;;;;;;37.72;13.20;;;;;;;;;;5050525;28;20028;-60
2021/01/09 12:13:25;;;;;;;34.15;10.73;;;;;;;;;;5056081;28;20380;-60
2021/01/09 12:15:51;;;;;;;36.38;12.27;;;;;;;;;;5024139;28;20477;-60
2021/01/09 12:18:19;;;;;;;35.25;11.18;;;3.90;99.90;;;;;;5030107;28;20345;-60
2021/01/09 12:20:47;;;;;;;34.00;12.40;;;4.80;99.90;;;;;;5038278;28;20377;-60
2021/01/09 12:23:13;;;;;;;31.40;11.35;;;;;;;;;;5056082;28;20087;-60
2021/01/09 12:25:39;;;;;;;37.28;13.27;;;;;;;;;;5049574;28;20089;-60
2021/01/09 12:28:05;;;;;;;41.50;13.18;;;4.10;99.90;;;;;;5042498;28;20400;-60
2021/01/09 12:30:31;;;;;;;25.73;7.78;;;;;;;;;;5039619;28;20079;-60
2021/01/09 12:32:57;;;;;;;28.15;10.90;;;3.10;99.90;;;;;;5046207;28;20044;-62
2021/01/09 12:35:23;;;;;;;42.10;14.60;;;;;;;;;;5033729;28;20035;-60
2021/01/09 12:37:49;;;;;;;48.90;14.77;;;;;;;;;;5033271;28;20037;-60
2021/01/09 12:40:15;;;;;;;26.83;9.27;;;;;;;;;;5041911;28;20037;-61
2021/01/09 12:42:41;;;;;;;30.67;9.57;;;;;;;;;;5044613;28;20031;-60
2021/01/09 12:45:07;;;;;;;24.48;10.57;;;3.80;99.90;;;;;;5051099;28;20037;-60
2021/01/09 12:47:33;;;;;;;24.85;10.52;;;4.10;99.90;;;;;;5062177;28;20632;-60
2021/01/09 12:49:59;;;;;;;41.53;13.85;;;;;;;;;;5044312;28;20044;-60
2021/01/09 12:52:25;;;;;;;43.72;12.75;;;;;;;;;;5053752;28;20033;-61
2021/01/09 12:54:51;;;;;;;41.83;13.70;;;;;;;;;;5040103;28;20062;-60
2021/01/09 12:57:17;;;;;;;29.35;11.55;;;;;;;;;;5039348;28;20493;-60
2021/01/09 12:59:43;;;;;;;49.28;16.15;;;;;;;;;;5045591;28;20029;-60
2021/01/09 13:02:09;;;;;;;25.80;11.52;;;;;;;;;;5045182;28;20036;-60
2021/01/09 13:04:35;;;;;;;49.72;16.55;;;;;;;;;;5035657;28;20401;-60
2021/01/09 13:07:01;;;;;;;18.70;6.60;;;;;;;;;;5044032;28;20025;-60
2021/01/09 13:09:29;;;;;;;40.17;13.82;;;3.50;99.90;;;;;;5054037;28;20114;-60
2021/01/09 13:11:58;;;;;;;43.70;14.93;;;4.50;99.90;;;;;;5046506;28;20037;-59